Time;durP1;ratioP1;P1;durP2;ratioP2;P2;SDS_P1;SDS_P2;PMS_P1;PMS_P2;Temp;Humidity;BMP_temperature;BMP_pressure;BME280_temperature;BME280_humidity;BME280_pressure;Samples;Min_cycle;Max_cycle;Signal;HPM_P1;HPM_P2
2021/08/31 00:01:34;;;;;;;27.17;17.00;;;15.10;99.90;;;;;;4992869;28;20053;-71
2021/08/31 00:03:59;;;;;;;27.97;15.70;;;15.00;99.90;;;;;;4992353;28;20046;-71
2021/08/31 00:06:25;;;;;;;25.90;15.50;;;15.10;99.90;;;;;;4992195;28;20425;-71
2021/08/31 00:08:50;;;;;;;28.90;15.63;;;15.00;99.90;;;;;;4992596;28;20046;-71
2021/08/31 00:11:16;;;;;;;28.90;15.90;;;15.00;99.90;;;;;;4991839;28;20035;-72
2021/08/31 00:13:41;;;;;;;25.47;14.07;;;15.00;99.90;;;;;;4992634;28;20435;-71
2021/08/31 00:16:07;;;;;;;30.57;15.60;;;15.00;99.90;;;;;;4992392;28;20133;-71
2021/08/31 00:18:33;;;;;;;27.47;14.93;;;15.10;99.90;;;;;;4992185;28;20046;-71
2021/08/31 00:20:58;;;;;;;29.57;14.97;;;15.10;99.90;;;;;;4992869;28;20046;-71
2021/08/31 00:23:24;;;;;;;28.17;14.90;;;15.10;99.90;;;;;;4991936;28;20097;-72
2021/08/31 00:25:52;;;;;;;29.00;14.50;;;15.10;99.90;;;;;;4991917;28;20046;-71
2021/08/31 00:28:22;;;;;;;27.67;14.60;;;15.10;99.90;;;;;;4990712;28;20046;-72
2021/08/31 00:30:48;;;;;;;28.57;14.37;;;15.20;99.90;;;;;;4992172;28;20512;-72
2021/08/31 00:33:14;;;;;;;25.43;14.97;;;15.20;99.90;;;;;;4991253;28;20491;-72
2021/08/31 00:35:39;;;;;;;30.83;14.83;;;15.20;99.90;;;;;;4974633;28;20057;-71
2021/08/31 00:38:05;;;;;;;28.23;15.27;;;15.30;99.90;;;;;;4974553;28;20046;-71
2021/08/31 00:40:31;;;;;;;27.50;13.83;;;15.30;99.90;;;;;;4991655;28;20138;-72
2021/08/31 00:42:56;;;;;;;27.33;14.17;;;15.30;99.90;;;;;;4974967;28;20384;-72
2021/08/31 00:45:23;;;;;;;28.53;14.07;;;15.30;99.90;;;;;;4991821;28;20047;-71
2021/08/31 00:47:48;;;;;;;25.87;13.90;;;15.40;99.90;;;;;;4992319;28;20050;-71
2021/08/31 00:50:16;;;;;;;25.70;13.47;;;15.40;99.90;;;;;;4991975;28;20057;-72
2021/08/31 00:52:42;;;;;;;23.57;12.97;;;15.40;99.90;;;;;;4974718;28;20390;-72
2021/08/31 00:55:10;;;;;;;26.53;13.17;;;15.40;99.90;;;;;;4991191;28;20049;-72
2021/08/31 00:57:37;;;;;;;23.63;12.83;;;15.40;99.90;;;;;;4993650;28;20085;-72
2021/08/31 01:00:06;;;;;;;25.70;13.87;;;15.40;99.90;;;;;;4995840;28;20042;-71
2021/08/31 01:02:32;;;;;;;26.93;13.37;;;15.40;99.90;;;;;;4977982;28;20133;-71
2021/08/31 01:04:57;;;;;;;22.77;13.10;;;15.50;99.90;;;;;;4995784;28;20128;-72
2021/08/31 01:07:23;;;;;;;28.53;13.30;;;15.50;99.90;;;;;;4995154;28;20125;-71
2021/08/31 01:09:50;;;;;;;22.37;12.13;;;15.40;99.90;;;;;;4977950;28;20050;-71
2021/08/31 01:12:17;;;;;;;23.70;11.73;;;15.40;99.90;;;;;;4995405;28;20050;-71
2021/08/31 01:14:43;;;;;;;28.63;12.93;;;15.40;99.90;;;;;;4994825;28;20405;-70
2021/08/31 01:17:09;;;;;;;24.33;11.90;;;15.40;99.90;;;;;;4977950;28;20372;-70
2021/08/31 01:19:35;;;;;;;36.20;12.07;;;15.40;99.90;;;;;;4977931;28;20050;-71
2021/08/31 01:22:05;;;;;;;26.30;12.23;;;15.40;99.90;;;;;;4995269;28;20050;-71
2021/08/31 01:24:31;;;;;;;16.92;10.32;;;15.40;99.90;;;;;;4977862;28;20038;-71
2021/08/31 01:26:58;;;;;;;27.53;10.57;;;15.30;99.90;;;;;;4995241;28;20069;-71
2021/08/31 01:29:26;;;;;;;21.17;11.00;;;15.30;99.90;;;;;;4994582;28;20388;-71
2021/08/31 01:31:52;;;;;;;21.77;11.00;;;15.30;99.90;;;;;;4978064;28;20050;-71
2021/08/31 01:34:18;;;;;;;21.23;10.70;;;15.30;99.90;;;;;;4994527;28;20058;-71
2021/08/31 01:36:43;;;;;;;24.43;12.53;;;15.20;99.90;;;;;;4994897;28;20057;-71
2021/08/31 01:39:09;;;;;;;24.60;11.27;;;15.20;99.90;;;;;;4994642;28;20042;-71
2021/08/31 01:41:35;;;;;;;19.53;12.13;;;15.20;99.90;;;;;;4977562;28;20153;-71
2021/08/31 01:44:00;;;;;;;26.53;13.23;;;15.10;99.90;;;;;;4977079;28;20138;-71
2021/08/31 01:46:26;;;;;;;19.63;12.83;;;15.10;99.90;;;;;;4994724;28;20161;-71
2021/08/31 01:48:51;;;;;;;22.23;13.07;;;15.10;99.90;;;;;;4994717;28;20038;-71
2021/08/31 01:51:18;;;;;;;24.50;12.37;;;15.00;99.90;;;;;;4994382;28;20046;-71
2021/08/31 01:53:44;;;;;;;27.77;13.70;;;15.00;99.90;;;;;;4977588;28;20054;-71
2021/08/31 01:56:10;;;;;;;23.43;12.63;;;14.90;99.90;;;;;;4976965;28;20487;-71
2021/08/31 01:58:35;;;;;;;22.97;13.23;;;14.90;99.90;;;;;;4994782;28;20043;-71
2021/08/31 02:01:01;;;;;;;25.33;13.83;;;14.80;99.90;;;;;;4994951;28;20101;-71
2021/08/31 02:03:27;;;;;;;22.37;13.83;;;14.70;99.90;;;;;;4977117;28;20137;-71
2021/08/31 02:05:53;;;;;;;30.13;13.90;;;14.70;99.90;;;;;;4994036;28;20133;-71
2021/08/31 02:08:18;;;;;;;25.83;14.13;;;14.70;99.90;;;;;;4994117;28;20057;-71
2021/08/31 02:10:45;;;;;;;27.60;13.80;;;14.70;99.90;;;;;;4977055;28;20061;-71
2021/08/31 02:13:10;;;;;;;23.97;13.73;;;14.70;99.90;;;;;;4976396;28;20038;-71
2021/08/31 02:15:36;;;;;;;23.90;12.80;;;14.70;99.90;;;;;;4994317;28;20509;-71
2021/08/31 02:18:03;;;;;;;23.53;13.73;;;14.70;99.90;;;;;;4993840;28;20419;-71
2021/08/31 02:20:28;;;;;;;26.57;14.43;;;14.70;99.90;;;;;;4994102;28;20076;-71
2021/08/31 02:22:55;;;;;;;24.70;13.43;;;14.70;99.90;;;;;;4994009;28;20039;-71
2021/08/31 02:25:20;;;;;;;23.67;13.47;;;14.70;99.90;;;;;;4993299;28;20042;-71
2021/08/31 02:27:46;;;;;;;24.13;14.53;;;14.70;99.90;;;;;;4994273;28;20509;-71
2021/08/31 02:30:13;;;;;;;24.33;13.93;;;14.70;99.90;;;;;;4976512;28;20054;-71
2021/08/31 02:32:38;;;;;;;24.53;14.20;;;14.70;99.90;;;;;;4993610;28;20052;-71
2021/08/31 02:35:04;;;;;;;24.20;14.10;;;14.70;99.90;;;;;;4993790;28;20129;-71
2021/08/31 02:37:30;;;;;;;23.33;13.27;;;14.70;99.90;;;;;;4976270;28;20046;-71
2021/08/31 02:39:55;;;;;;;27.87;13.70;;;14.70;99.90;;;;;;4976110;28;20048;-71
2021/08/31 02:42:21;;;;;;;21.40;14.20;;;14.70;99.90;;;;;;4993669;28;20124;-71
2021/08/31 02:44:47;;;;;;;20.83;13.07;;;14.70;99.90;;;;;;4994053;28;20039;-71
2021/08/31 02:47:12;;;;;;;25.77;14.00;;;14.70;99.90;;;;;;4975820;28;20058;-71
2021/08/31 02:49:38;;;;;;;27.33;13.73;;;14.70;99.90;;;;;;4976460;28;20042;-71
2021/08/31 02:52:04;;;;;;;26.70;13.80;;;14.70;99.90;;;;;;4993441;28;20561;-71
2021/08/31 02:54:29;;;;;;;28.10;14.83;;;14.80;99.90;;;;;;4975546;28;20121;-71
2021/08/31 02:56:55;;;;;;;25.13;13.17;;;14.80;99.90;;;;;;4993743;28;20415;-71
2021/08/31 02:59:21;;;;;;;24.47;13.50;;;14.80;99.90;;;;;;4993098;28;20475;-71
2021/08/31 03:02:08;;;;;;;25.67;12.83;;;14.80;99.90;;;;;;4993017;28;20116;-71
2021/08/31 03:04:38;;;;;;;27.60;14.17;;;14.90;99.90;;;;;;4992832;28;20053;-71
2021/08/31 03:07:10;;;;;;;28.52;14.40;;;14.90;99.90;;;;;;4976129;28;20034;-71
2021/08/31 03:09:36;;;;;;;;;;;14.90;99.90;;;;;;4993846;28;20054;-71
2021/08/31 03:12:02;;;;;;;28.57;13.23;;;14.80;99.90;;;;;;4993315;28;19917;-71
2021/08/31 03:14:28;;;;;;;27.37;13.73;;;14.80;99.90;;;;;;4992816;28;20098;-71
2021/08/31 03:16:55;;;;;;;25.30;12.97;;;14.80;99.90;;;;;;4993323;28;20077;-70
2021/08/31 03:19:23;;;;;;;22.23;12.90;;;14.80;99.90;;;;;;4975734;28;20050;-71
2021/08/31 03:21:53;;;;;;;29.30;13.40;;;14.70;99.90;;;;;;4992364;28;20050;-71
2021/08/31 03:24:19;;;;;;;25.30;13.67;;;14.70;99.90;;;;;;4975537;28;20522;-71
2021/08/31 03:26:45;;;;;;;26.53;14.70;;;14.70;99.90;;;;;;4975860;28;20050;-71
2021/08/31 03:29:10;;;;;;;24.37;13.60;;;14.70;99.90;;;;;;4975002;28;20399;-71
2021/08/31 03:31:36;;;;;;;24.57;14.60;;;14.70;99.90;;;;;;4993586;28;20046;-71
2021/08/31 03:34:02;;;;;;;23.10;14.80;;;14.80;99.90;;;;;;4982111;28;20069;-71
2021/08/31 03:36:27;;;;;;;30.17;13.97;;;14.80;99.90;;;;;;4990918;28;20419;-71
2021/08/31 03:38:53;;;;;;;23.07;14.40;;;14.80;99.90;;;;;;4993062;28;20038;-72
2021/08/31 03:41:18;;;;;;;30.73;15.00;;;14.80;99.90;;;;;;4992688;28;20545;-71
2021/08/31 03:43:44;;;;;;;23.83;13.80;;;14.80;99.90;;;;;;4992469;28;20125;-71
2021/08/31 03:46:10;;;;;;;24.10;14.17;;;14.90;99.90;;;;;;4992815;28;20045;-71
2021/08/31 03:48:35;;;;;;;28.33;14.30;;;14.90;99.90;;;;;;4992946;28;20050;-71
2021/08/31 03:51:01;;;;;;;28.97;15.77;;;14.90;99.90;;;;;;4992250;28;20041;-71
2021/08/31 03:53:26;;;;;;;26.50;14.63;;;15.00;99.90;;;;;;4991395;28;20104;-71
2021/08/31 03:55:52;;;;;;;30.03;14.23;;;15.00;99.90;;;;;;4992518;28;20045;-71
2021/08/31 03:58:17;;;;;;;27.53;14.77;;;15.00;99.90;;;;;;4992055;28;20529;-70
2021/08/31 04:00:43;;;;;;;25.93;13.80;;;15.10;99.90;;;;;;4992944;28;20610;-71
2021/08/31 04:03:08;;;;;;;24.97;13.83;;;15.10;99.90;;;;;;4991049;28;20451;-71
2021/08/31 04:05:34;;;;;;;24.67;14.67;;;15.10;99.90;;;;;;4991284;28;20045;-71
2021/08/31 04:08:00;;;;;;;23.00;14.47;;;15.20;99.90;;;;;;4993061;28;20078;-71
2021/08/31 04:10:28;;;;;;;28.03;14.07;;;15.20;99.90;;;;;;4990719;28;20491;-71
2021/08/31 04:12:53;;;;;;;29.33;13.93;;;15.30;99.90;;;;;;4991999;28;20105;-71
2021/08/31 04:15:19;;;;;;;34.40;15.20;;;15.30;99.90;;;;;;4991837;28;20107;-71
2021/08/31 04:17:45;;;;;;;28.93;14.93;;;15.40;99.90;;;;;;4992295;28;20046;-71
2021/08/31 04:20:11;;;;;;;25.73;14.57;;;15.40;99.90;;;;;;4991029;28;20104;-71
2021/08/31 04:22:36;;;;;;;25.67;15.73;;;15.40;99.90;;;;;;4992443;28;20450;-71
2021/08/31 04:25:04;;;;;;;31.17;15.53;;;15.40;99.90;;;;;;4991844;28;20046;-71
2021/08/31 04:27:29;;;;;;;34.57;14.97;;;15.50;99.90;;;;;;4991835;28;20046;-71
2021/08/31 04:29:55;;;;;;;28.40;15.40;;;15.50;99.90;;;;;;4992091;28;20053;-71
2021/08/31 04:32:20;;;;;;;25.80;14.90;;;15.60;99.90;;;;;;4994147;28;20038;-71
2021/08/31 04:34:47;;;;;;;23.13;14.40;;;15.60;99.90;;;;;;4996406;28;20133;-71
2021/08/31 04:37:12;;;;;;;29.20;15.47;;;15.60;99.90;;;;;;4995696;28;20065;-71
2021/08/31 04:39:38;;;;;;;23.00;15.40;;;15.60;99.90;;;;;;4995626;28;20038;-71
2021/08/31 04:42:06;;;;;;;32.77;15.27;;;15.70;99.90;;;;;;4995895;28;20069;-71
2021/08/31 04:44:35;;;;;;;32.50;16.83;;;15.70;99.90;;;;;;4996006;28;20046;-71
2021/08/31 04:47:01;;;;;;;30.00;16.30;;;15.70;99.90;;;;;;4978169;28;20072;-71
2021/08/31 04:49:27;;;;;;;27.27;17.33;;;15.70;99.90;;;;;;4995643;28;20058;-71
2021/08/31 04:51:53;;;;;;;26.63;16.60;;;15.80;99.90;;;;;;4995662;28;20053;-70
2021/08/31 04:54:18;;;;;;;28.33;16.73;;;15.80;99.90;;;;;;4977671;28;20042;-71
2021/08/31 04:56:44;;;;;;;32.87;16.07;;;15.80;99.90;;;;;;4977907;28;20042;-70
2021/08/31 04:59:09;;;;;;;34.10;15.83;;;15.90;99.90;;;;;;4977659;28;20049;-71
2021/08/31 05:01:35;;;;;;;30.23;16.13;;;15.90;99.90;;;;;;4995186;28;20062;-70
2021/08/31 05:04:00;;;;;;;26.27;15.63;;;15.90;99.90;;;;;;4995467;28;20034;-71
2021/08/31 05:06:27;;;;;;;30.47;16.37;;;16.00;99.90;;;;;;4995303;28;20061;-70
2021/08/31 05:08:52;;;;;;;30.63;16.17;;;16.00;99.90;;;;;;4977883;28;20042;-71
2021/08/31 05:11:18;;;;;;;25.17;15.23;;;16.00;99.90;;;;;;4994394;28;20097;-70
2021/08/31 05:13:44;;;;;;;28.87;15.50;;;16.00;99.90;;;;;;4977432;28;20054;-70
2021/08/31 05:16:13;;;;;;;27.27;15.67;;;16.00;99.90;;;;;;4994746;28;20054;-70
2021/08/31 05:18:38;;;;;;;26.60;13.97;;;16.00;99.90;;;;;;4977350;28;20065;-71
2021/08/31 05:21:04;;;;;;;29.20;13.60;;;16.00;99.90;;;;;;4994683;28;20042;-70
2021/08/31 05:23:30;;;;;;;22.83;13.77;;;16.00;99.90;;;;;;4994629;28;20103;-70
2021/08/31 05:25:56;;;;;;;29.70;14.90;;;16.00;99.90;;;;;;4994732;28;20124;-70
2021/08/31 05:28:21;;;;;;;26.10;13.23;;;15.90;99.90;;;;;;4994228;28;20130;-71
2021/08/31 05:30:47;;;;;;;25.43;14.17;;;15.90;99.90;;;;;;4977517;28;20058;-70
2021/08/31 05:33:16;;;;;;;25.83;14.43;;;15.90;99.90;;;;;;4993920;28;20414;-70
2021/08/31 05:35:41;;;;;;;26.13;14.67;;;15.90;99.90;;;;;;4994387;28;20050;-70
2021/08/31 05:38:07;;;;;;;27.20;15.27;;;15.90;99.90;;;;;;4994303;28;20057;-71
2021/08/31 05:40:33;;;;;;;27.03;13.33;;;15.90;99.90;;;;;;4976855;28;20046;-71
2021/08/31 05:42:58;;;;;;;24.43;13.43;;;15.90;99.90;;;;;;4993237;28;20045;-71
2021/08/31 05:45:24;;;;;;;23.73;12.70;;;15.90;99.90;;;;;;4976901;28;20061;-70
2021/08/31 05:47:49;;;;;;;22.47;13.73;;;15.90;99.90;;;;;;4994256;28;20057;-70
2021/08/31 05:50:15;;;;;;;22.70;12.60;;;16.00;99.90;;;;;;4976179;28;20050;-70
2021/08/31 05:52:40;;;;;;;23.87;12.57;;;16.00;99.90;;;;;;4994029;28;20043;-71
2021/08/31 05:55:07;;;;;;;21.60;11.43;;;16.00;99.90;;;;;;4994147;28;20130;-71
2021/08/31 05:57:32;;;;;;;25.20;11.83;;;16.00;99.90;;;;;;4993969;28;20042;-70
2021/08/31 05:59:58;;;;;;;20.67;11.90;;;16.00;99.90;;;;;;4994381;28;20081;-70
2021/08/31 06:02:24;;;;;;;19.63;10.73;;;16.10;99.90;;;;;;4975836;28;20042;-71
2021/08/31 06:04:50;;;;;;;20.37;11.67;;;16.10;99.90;;;;;;4993778;28;20359;-70
2021/08/31 06:07:15;;;;;;;20.00;11.40;;;16.10;99.90;;;;;;4993510;28;20517;-70
2021/08/31 06:09:41;;;;;;;36.83;12.80;;;16.10;99.90;;;;;;4994292;28;20046;-70
2021/08/31 06:12:13;;;;;;;22.07;10.07;;;16.20;99.90;;;;;;4975544;28;20046;-70
2021/08/31 06:14:41;;;;;;;19.05;10.20;;;16.30;99.90;;;;;;4994056;28;20088;-70
2021/08/31 06:17:09;;;;;;;18.97;10.40;;;16.30;99.90;;;;;;4975858;28;20400;-71
2021/08/31 06:19:35;;;;;;;17.23;9.73;;;16.30;99.90;;;;;;4976521;28;20117;-71
2021/08/31 06:22:01;;;;;;;21.40;10.77;;;16.40;99.90;;;;;;4976085;28;20072;-71
2021/08/31 06:24:27;;;;;;;22.30;9.77;;;16.40;99.90;;;;;;4993466;28;20039;-71
2021/08/31 06:26:53;;;;;;;18.10;8.97;;;16.40;99.90;;;;;;4969334;28;20211;-70
2021/08/31 06:29:18;;;;;;;19.50;8.93;;;16.40;99.90;;;;;;4973738;28;20585;-70
2021/08/31 06:31:44;;;;;;;18.73;9.57;;;16.40;99.90;;;;;;4974152;28;20046;-70
2021/08/31 06:34:09;;;;;;;20.40;9.50;;;16.40;99.90;;;;;;4975397;28;20054;-71
2021/08/31 06:36:35;;;;;;;17.40;9.10;;;16.50;99.90;;;;;;4993587;28;20380;-70
2021/08/31 06:39:01;;;;;;;15.07;9.17;;;16.50;99.90;;;;;;4993280;28;20081;-70
2021/08/31 06:41:26;;;;;;;19.40;9.80;;;16.50;99.90;;;;;;4993226;28;20062;-70
2021/08/31 06:43:52;;;;;;;16.77;9.43;;;16.50;99.90;;;;;;4993415;28;20043;-71
2021/08/31 06:46:17;;;;;;;21.80;9.03;;;16.50;99.90;;;;;;4992782;28;20050;-70
2021/08/31 06:48:44;;;;;;;18.90;9.10;;;16.50;99.90;;;;;;4992625;28;20542;-70
2021/08/31 06:51:10;;;;;;;20.80;10.00;;;16.60;99.90;;;;;;4991621;28;20100;-70
2021/08/31 06:53:36;;;;;;;16.00;9.03;;;16.60;99.90;;;;;;4993224;28;20105;-69
2021/08/31 06:56:02;;;;;;;20.63;9.03;;;16.60;99.90;;;;;;4992345;28;20086;-72
2021/08/31 06:58:27;;;;;;;17.17;8.60;;;16.70;99.90;;;;;;4991037;28;20046;-70
2021/08/31 07:00:53;;;;;;;17.77;9.30;;;16.80;99.90;;;;;;4992355;28;20478;-71
2021/08/31 07:03:18;;;;;;;14.53;8.90;;;16.80;99.90;;;;;;4992191;28;20042;-71
2021/08/31 07:05:44;;;;;;;13.33;8.63;;;16.90;99.90;;;;;;4991052;28;20411;-71
2021/08/31 07:08:09;;;;;;;15.23;8.73;;;17.00;99.90;;;;;;4991673;28;20049;-71
2021/08/31 07:10:35;;;;;;;18.53;9.00;;;17.10;99.90;;;;;;4992562;28;20046;-71
2021/08/31 07:13:01;;;;;;;18.67;10.33;;;17.10;99.90;;;;;;4992866;28;20046;-70
2021/08/31 07:15:26;;;;;;;17.93;9.70;;;17.20;99.90;;;;;;4991897;28;20060;-71
2021/08/31 07:17:52;;;;;;;15.87;10.03;;;17.30;99.90;;;;;;4992615;28;20056;-70
2021/08/31 07:20:17;;;;;;;23.27;10.50;;;17.30;99.90;;;;;;4992643;28;20045;-71
2021/08/31 07:22:43;;;;;;;20.33;10.33;;;17.30;99.80;;;;;;4991862;28;20050;-70
2021/08/31 07:25:09;;;;;;;19.03;10.63;;;17.30;99.40;;;;;;4991251;28;20086;-70
2021/08/31 07:27:35;;;;;;;19.97;10.63;;;17.40;99.20;;;;;;4991290;28;20435;-71
2021/08/31 07:30:01;;;;;;;17.57;10.27;;;17.30;98.90;;;;;;4991667;28;20038;-70
2021/08/31 07:32:26;;;;;;;17.43;9.47;;;17.30;98.80;;;;;;4992635;28;20115;-70
2021/08/31 07:34:52;;;;;;;18.67;10.70;;;17.30;98.60;;;;;;4991072;28;20414;-70
2021/08/31 07:37:17;;;;;;;17.73;8.93;;;17.30;98.60;;;;;;4992025;28;20058;-70
2021/08/31 07:39:43;;;;;;;10.50;7.17;;;17.30;98.30;;;;;;4992839;28;20491;-71
2021/08/31 07:42:10;;;;;;;17.70;7.70;;;17.20;98.10;;;;;;4990708;28;20054;-70
2021/08/31 07:44:36;;;;;;;16.23;7.23;;;17.20;97.60;;;;;;4992805;28;20046;-70
2021/08/31 07:47:02;;;;;;;18.50;8.23;;;17.20;97.50;;;;;;4992586;28;20076;-71
2021/08/31 07:49:28;;;;;;;12.37;7.13;;;17.20;97.50;;;;;;4991794;28;20074;-70
2021/08/31 07:51:53;;;;;;;16.23;7.20;;;17.20;97.20;;;;;;4992678;28;20054;-70
2021/08/31 07:54:19;;;;;;;15.60;6.93;;;17.20;97.00;;;;;;4992402;28;20125;-70
2021/08/31 07:56:45;;;;;;;17.67;6.90;;;17.30;96.90;;;;;;4992125;28;20065;-71
2021/08/31 07:59:11;;;;;;;12.60;6.30;;;17.30;96.90;;;;;;4991178;28;20050;-71
2021/08/31 08:01:37;;;;;;;15.33;6.07;;;17.40;96.80;;;;;;4992503;28;20058;-70
2021/08/31 08:04:03;;;;;;;15.60;6.10;;;17.50;96.70;;;;;;4991777;28;20050;-70
2021/08/31 08:06:28;;;;;;;13.20;6.47;;;17.60;96.90;;;;;;4990460;28;20046;-70
2021/08/31 08:08:55;;;;;;;15.27;6.80;;;17.90;97.20;;;;;;4992437;28;20053;-71
2021/08/31 08:11:21;;;;;;;10.87;6.27;;;18.30;96.80;;;;;;4991781;28;20042;-70
2021/08/31 08:13:47;;;;;;;13.17;5.70;;;18.60;95.80;;;;;;4992404;28;20049;-71
2021/08/31 08:16:12;;;;;;;14.20;5.90;;;18.80;94.90;;;;;;4991963;28;20050;-71
2021/08/31 08:18:39;;;;;;;16.73;6.03;;;18.80;94.20;;;;;;4990417;28;20455;-70
2021/08/31 08:21:05;;;;;;;13.10;5.27;;;18.80;94.20;;;;;;4990888;28;20057;-71
2021/08/31 08:23:30;;;;;;;12.93;5.27;;;18.80;93.70;;;;;;4990932;28;20078;-71
2021/08/31 08:25:56;;;;;;;14.33;5.23;;;18.70;93.70;;;;;;4991630;28;20150;-70
2021/08/31 08:28:23;;;;;;;16.83;5.33;;;18.60;93.60;;;;;;4991810;28;20069;-71
2021/08/31 08:30:50;;;;;;;13.70;5.00;;;18.50;93.40;;;;;;4991790;28;20046;-71
2021/08/31 08:33:16;;;;;;;13.43;5.40;;;18.60;93.60;;;;;;4991645;28;20058;-70
2021/08/31 08:35:41;;;;;;;16.27;5.17;;;18.70;93.70;;;;;;4992275;28;20057;-71
2021/08/31 08:38:07;;;;;;;18.60;5.20;;;19.10;93.80;;;;;;4991725;28;20053;-71
2021/08/31 08:40:35;;;;;;;15.23;5.40;;;19.40;92.90;;;;;;4992207;28;20050;-70
2021/08/31 08:43:03;;;;;;;18.47;5.80;;;19.40;92.60;;;;;;4991178;28;20050;-71
2021/08/31 08:45:29;;;;;;;14.67;5.37;;;19.30;92.00;;;;;;4991349;28;20407;-71
2021/08/31 08:47:54;;;;;;;12.73;4.80;;;19.10;92.20;;;;;;4992273;28;20455;-71
2021/08/31 08:50:20;;;;;;;16.57;5.50;;;19.00;92.30;;;;;;4991698;28;20483;-71
2021/08/31 08:52:45;;;;;;;15.43;5.20;;;18.90;92.10;;;;;;4991599;28;20487;-71
2021/08/31 08:55:12;;;;;;;15.63;5.30;;;18.80;92.00;;;;;;4991759;28;20039;-71
2021/08/31 08:57:38;;;;;;;14.20;5.20;;;18.60;91.90;;;;;;4991964;28;20061;-70
2021/08/31 09:00:06;;;;;;;11.73;4.97;;;18.50;92.00;;;;;;4990364;28;20047;-70
2021/08/31 09:02:38;;;;;;;15.70;5.07;;;18.40;92.10;;;;;;4991895;28;20491;-70
2021/08/31 09:05:13;;;;;;;15.83;5.50;;;18.30;92.20;;;;;;4990790;28;20046;-70
2021/08/31 09:07:41;;;;;;;15.23;6.07;;;18.10;92.30;;;;;;4991430;28;20447;-71
2021/08/31 09:10:16;;;;;;;16.03;5.03;;;18.00;92.70;;;;;;4991511;28;20043;-71
2021/08/31 09:12:45;;;;;;;16.63;5.13;;;18.00;93.00;;;;;;4992044;28;20050;-71
2021/08/31 09:15:33;;;;;;;12.47;5.00;;;18.10;92.90;;;;;;4991043;28;20042;-71
2021/08/31 09:18:08;;;;;;;15.63;4.73;;;18.30;92.50;;;;;;4991286;28;20395;-70
2021/08/31 09:20:41;;;;;;;14.00;4.77;;;18.40;92.10;;;;;;4995211;28;20388;-72
2021/08/31 09:23:10;;;;;;;14.63;5.20;;;18.50;91.60;;;;;;4995339;28;20047;-70
2021/08/31 09:25:37;;;;;;;18.17;5.13;;;18.60;91.20;;;;;;4994239;28;20054;-70
2021/08/31 09:28:19;;;;;;;10.90;4.70;;;18.60;91.10;;;;;;4993981;28;20061;-70
2021/08/31 09:30:45;;;;;;;20.67;5.60;;;18.60;91.20;;;;;;4995119;28;20093;-71
2021/08/31 09:33:15;;;;;;;15.30;5.37;;;18.60;91.40;;;;;;4993369;28;20050;-71
2021/08/31 09:35:47;;;;;;;17.93;5.77;;;18.50;91.30;;;;;;4993144;28;20483;-71
2021/08/31 09:38:18;;;;;;;16.40;5.20;;;18.40;91.40;;;;;;4994711;28;20053;-71
2021/08/31 09:40:47;;;;;;;20.23;6.32;;;18.40;91.50;;;;;;4995254;28;20042;-71
2021/08/31 09:43:17;;;;;;;16.53;5.27;;;18.50;91.80;;;;;;4994617;28;20403;-70
2021/08/31 09:45:45;;;;;;;14.97;5.50;;;18.60;91.60;;;;;;4995077;28;20034;-71
2021/08/31 09:48:13;;;;;;;16.10;5.67;;;18.70;91.30;;;;;;4993043;28;20505;-71
2021/08/31 09:50:40;;;;;;;13.17;4.80;;;18.80;91.30;;;;;;4995417;28;20459;-71
2021/08/31 09:53:13;;;;;;;15.20;5.00;;;19.00;91.30;;;;;;4995007;28;20050;-71
2021/08/31 09:55:41;;;;;;;12.87;5.20;;;19.20;90.20;;;;;;4993492;28;20467;-71
2021/08/31 09:58:09;;;;;;;11.33;5.17;;;19.20;89.30;;;;;;4994636;28;20039;-71
2021/08/31 10:00:38;;;;;;;10.87;4.83;;;19.10;88.40;;;;;;4994353;28;20049;-71
2021/08/31 10:03:04;;;;;;;13.07;5.37;;;19.10;87.80;;;;;;4994412;28;20050;-70
2021/08/31 10:05:32;;;;;;;13.07;4.67;;;19.10;87.90;;;;;;4992913;28;20193;-71
2021/08/31 10:07:59;;;;;;;14.70;4.40;;;19.20;87.90;;;;;;4993724;28;20051;-71
2021/08/31 10:10:25;;;;;;;12.07;4.23;;;19.30;87.30;;;;;;4992642;28;20383;-71
2021/08/31 10:12:52;;;;;;;15.27;5.20;;;19.30;87.00;;;;;;4995442;28;20046;-71
2021/08/31 10:15:21;;;;;;;18.27;5.10;;;19.40;87.60;;;;;;4995179;28;20138;-71
2021/08/31 10:17:49;;;;;;;13.13;4.90;;;19.50;87.30;;;;;;4993528;28;20049;-71
2021/08/31 10:20:19;;;;;;;13.27;4.97;;;19.50;87.00;;;;;;4993670;28;20046;-71
2021/08/31 10:22:46;;;;;;;16.57;4.77;;;19.50;87.10;;;;;;4993723;28;20129;-72
2021/08/31 10:25:12;;;;;;;20.87;4.83;;;19.50;86.90;;;;;;4992206;28;20093;-71
2021/08/31 10:27:43;;;;;;;14.87;4.53;;;19.40;86.40;;;;;;4993820;28;20074;-71
2021/08/31 10:30:20;;;;;;;10.38;4.25;;;19.30;85.30;;;;;;4992110;28;20046;-71
2021/08/31 10:32:57;;;;;;;15.90;4.73;;;19.30;85.80;;;;;;4993539;28;20058;-71
2021/08/31 10:35:32;;;;;;;12.13;4.20;;;19.30;85.40;;;;;;4991918;28;20054;-71
2021/08/31 10:38:03;;;;;;;14.00;5.10;;;19.20;85.10;;;;;;4992888;28;20380;-71
2021/08/31 10:40:32;;;;;;;14.88;4.30;;;19.10;85.40;;;;;;4993386;28;20495;-70
2021/08/31 10:42:58;;;;;;;14.10;4.67;;;19.10;85.80;;;;;;4993356;28;20153;-71
2021/08/31 10:45:42;;;;;;;12.93;4.90;;;19.10;86.00;;;;;;4991715;28;20101;-70
2021/08/31 10:48:34;;;;;;;12.30;4.10;;;19.10;86.00;;;;;;4993102;28;20042;-70
2021/08/31 10:51:03;;;;;;;15.13;4.80;;;19.10;86.20;;;;;;4988831;28;20389;-70
2021/08/31 10:53:39;;;;;;;13.07;4.37;;;19.10;85.50;;;;;;4992711;28;20077;-71
2021/08/31 10:56:23;;;;;;;14.17;4.70;;;19.10;85.00;;;;;;4993203;28;20100;-71
2021/08/31 10:58:51;;;;;;;13.60;4.03;;;19.10;84.00;;;;;;4992706;28;20447;-70
2021/08/31 11:01:35;;;;;;;14.03;4.77;;;19.10;84.50;;;;;;4992848;28;20495;-71
2021/08/31 11:04:01;;;;;;;16.33;5.33;;;19.20;85.00;;;;;;4993483;28;20038;-71
2021/08/31 11:06:29;;;;;;;14.83;4.97;;;19.10;84.80;;;;;;4992466;28;20066;-70
2021/08/31 11:09:07;;;;;;;13.37;4.67;;;19.10;84.80;;;;;;4985313;28;20455;-67
2021/08/31 11:11:33;;;;;;;14.17;4.57;;;19.10;83.70;;;;;;4987175;28;20046;-69
2021/08/31 11:13:59;;;;;;;14.50;4.23;;;19.10;83.80;;;;;;4987403;28;20042;-67
2021/08/31 11:16:36;;;;;;;19.63;5.53;;;19.20;84.00;;;;;;4988160;28;20054;-67
2021/08/31 11:19:02;;;;;;;14.67;4.93;;;19.10;84.40;;;;;;4983374;28;20403;-68
2021/08/31 11:21:27;;;;;;;11.70;4.10;;;19.10;85.10;;;;;;4994593;28;20046;-68
2021/08/31 11:24:06;;;;;;;17.87;5.17;;;19.00;85.10;;;;;;5001747;28;20431;-68
2021/08/31 11:26:32;;;;;;;14.57;4.40;;;19.00;85.40;;;;;;4985939;28;20144;-68
2021/08/31 11:29:10;;;;;;;11.87;5.03;;;19.00;85.00;;;;;;4989895;28;20499;-69
2021/08/31 11:31:36;;;;;;;15.57;5.00;;;19.00;84.60;;;;;;4987781;28;20069;-69
2021/08/31 11:34:02;;;;;;;14.60;4.47;;;18.80;85.20;;;;;;4992280;28;20077;-70
2021/08/31 11:36:28;;;;;;;25.13;5.50;;;18.80;85.60;;;;;;4995742;28;20050;-69
2021/08/31 11:38:56;;;;;;;16.20;4.57;;;18.70;86.10;;;;;;4984736;28;20042;-69
2021/08/31 11:41:43;;;;;;;21.87;5.00;;;18.70;86.20;;;;;;4983445;28;20539;-69
2021/08/31 11:44:16;;;;;;;17.37;4.90;;;18.60;85.70;;;;;;4988389;28;20038;-69
2021/08/31 11:46:43;;;;;;;14.33;4.90;;;18.60;85.90;;;;;;4989260;28;20101;-69
2021/08/31 11:49:30;;;;;;;16.40;4.37;;;18.60;85.90;;;;;;4997912;28;20053;-69
2021/08/31 11:52:02;;;;;;;14.50;5.07;;;18.60;85.60;;;;;;4997644;28;20506;-70
2021/08/31 11:54:30;;;;;;;18.07;5.00;;;18.50;85.90;;;;;;4986304;28;20184;-71
2021/08/31 11:57:03;;;;;;;13.93;4.90;;;18.50;86.30;;;;;;4988135;28;20513;-68
2021/08/31 11:59:46;;;;;;;13.60;4.40;;;18.40;87.00;;;;;;4986377;28;20507;-72
2021/08/31 12:02:13;;;;;;;17.67;5.33;;;18.40;87.60;;;;;;4988564;28;20046;-71
2021/08/31 12:04:42;;;;;;;14.70;5.30;;;18.40;88.00;;;;;;4988500;28;20104;-72
2021/08/31 12:07:10;;;;;;;16.27;4.83;;;18.40;88.40;;;;;;4999472;28;20072;-71
2021/08/31 12:09:38;;;;;;;16.63;4.87;;;18.50;88.90;;;;;;4994757;28;20431;-71
2021/08/31 12:12:04;;;;;;;14.50;4.73;;;18.40;88.70;;;;;;4987742;28;20117;-72
2021/08/31 12:14:30;;;;;;;13.97;4.80;;;18.40;88.70;;;;;;4988377;28;20100;-72
2021/08/31 12:16:56;;;;;;;15.50;5.13;;;18.40;89.00;;;;;;4987416;28;20050;-72
2021/08/31 12:19:23;;;;;;;16.00;5.13;;;18.30;89.30;;;;;;4987882;28;20104;-71
2021/08/31 12:22:06;;;;;;;20.13;4.70;;;18.30;89.70;;;;;;4997596;28;20033;-72
2021/08/31 12:24:32;;;;;;;16.97;5.20;;;18.20;90.10;;;;;;4992537;28;20128;-72
2021/08/31 12:27:06;;;;;;;13.67;4.90;;;18.20;90.20;;;;;;4988430;28;20145;-71
2021/08/31 12:29:50;;;;;;;20.00;5.43;;;18.20;90.40;;;;;;4988778;28;20050;-72
2021/08/31 12:32:29;;;;;;;19.77;5.37;;;18.10;90.50;;;;;;4986267;28;20042;-72